aviador You're here:

EPZG Decoded Metar

ZIELONA GORA in POLAND
Report Time2017-09-24 12:00:00
UTC Time2017-09-24 12:11:32
Flight Rules vfr VFR
Wind070° at 09 kt
W.Decomp.*RWY 06: 8.9 kt HW 1.1 kt RCW
W.Rank070° ranks 7
Current wind is above 070° avg. (6.3)
Visibility9999 m
Phenomena:N/A
Clouds:Few 021 Hf
Scattered 028 Hf
Expected CloudBase > 2,000 ft AGL from Temp-Dew spread
CeilingNone
Temp18°C (ISA +3)
Dew Point13°C (73% RH)
AAT15.7°C
QNH1022 hPa
Density Alt489 ft
Elevation194 ft
Report Wrong Elevation
Raw Report
METAR EPZG 241200Z 07009KT 050V110 9999 FEW021 SCT028 18/13 Q1022 =

Extra information for EPZG:More info

Metar Taf Metar & Taf Last 4 Metars F.Rules Stats Wind Profile Meteogram Temp Stats Airport Information Weather charts Add Link Nearby VenuesMetar ALERT Operation Metar Decoded Social comments